KDNL/DNL METAR and TAF weather

Enter ICAO airport designator
Station Type Date Time Source
KDNL METAR 2019/08/25 06:53 UTC NOAA

KDNL 250653Z AUTO 02007KT 10SM OVC008 22/18 A3008 RMK AO2 SLP181 T02170183


Station Type Date Time Source
KDNL Decoded METAR 2019/08/25 06:53 UTC NOAA

Station name not available
Aug 25, 2019 - 02:53 AM EDT / 2019.08.25 0653 UTC
Wind: from the NNE (020 degrees) at 8 MPH (7 KT):0
Visibility: 10 mile(s):0
Sky conditions: overcast
Temperature: 71.1 F (21.7 C)
Dew Point: 64.9 F (18.3 C)
Relative Humidity: 81%
Pressure (altimeter): 30.08 in. Hg (1018 hPa)
ob: KDNL 250653Z AUTO 02007KT 10SM OVC008 22/18 A3008 RMK AO2 SLP181 T02170183
cycle: 7

Station Type Date Time Source
KDNL TAF 2019/08/25 06:36 UTC NOAA

TAF KDNL 250533Z 2506/2606 03010KT P6SM OVC009
FM251400 03010KT P6SM OVC015
FM251800 03010KT P6SM OVC025
FM260000 05008KT P6SM OVC035

Example: see airport list